sensor_id;sensor_type;location;lat;lon;timestamp;pressure;altitude;pressure_sealevel;temperature
10598;BMP180;5346;48.766;8.674;2023-09-19T00:02:28;93838.00;;;15.00
10598;BMP180;5346;48.766;8.674;2023-09-19T00:05:04;93847.00;;;14.90
10598;BMP180;5346;48.766;8.674;2023-09-19T00:07:33;93854.00;;;14.80
10598;BMP180;5346;48.766;8.674;2023-09-19T00:10:03;93850.00;;;14.90
10598;BMP180;5346;48.766;8.674;2023-09-19T00:12:43;93847.00;;;14.80
10598;BMP180;5346;48.766;8.674;2023-09-19T00:15:11;93848.00;;;14.70
10598;BMP180;5346;48.766;8.674;2023-09-19T00:17:46;93843.00;;;14.90
10598;BMP180;5346;48.766;8.674;2023-09-19T00:20:22;93845.00;;;15.00
10598;BMP180;5346;48.766;8.674;2023-09-19T00:22:57;93850.00;;;15.00
10598;BMP180;5346;48.766;8.674;2023-09-19T00:25:37;93853.00;;;15.00
10598;BMP180;5346;48.766;8.674;2023-09-19T00:28:07;93844.00;;;15.10
10598;BMP180;5346;48.766;8.674;2023-09-19T00:30:45;93855.00;;;15.00
10598;BMP180;5346;48.766;8.674;2023-09-19T00:33:24;93858.00;;;15.00
10598;BMP180;5346;48.766;8.674;2023-09-19T00:36:00;93850.00;;;15.10
10598;BMP180;5346;48.766;8.674;2023-09-19T00:38:39;93851.00;;;15.10
10598;BMP180;5346;48.766;8.674;2023-09-19T00:41:14;93850.00;;;15.00
10598;BMP180;5346;48.766;8.674;2023-09-19T00:43:53;93851.00;;;15.10
10598;BMP180;5346;48.766;8.674;2023-09-19T00:46:27;93846.00;;;14.90
10598;BMP180;5346;48.766;8.674;2023-09-19T00:49:02;93852.00;;;15.00
10598;BMP180;5346;48.766;8.674;2023-09-19T00:51:37;93843.00;;;15.00
10598;BMP180;5346;48.766;8.674;2023-09-19T00:54:05;93854.00;;;15.10
10598;BMP180;5346;48.766;8.674;2023-09-19T00:56:39;93846.00;;;14.90
10598;BMP180;5346;48.766;8.674;2023-09-19T00:59:14;93858.00;;;14.90
10598;BMP180;5346;48.766;8.674;2023-09-19T01:01:48;93872.00;;;15.00
10598;BMP180;5346;48.766;8.674;2023-09-19T01:04:31;93874.00;;;15.10
10598;BMP180;5346;48.766;8.674;2023-09-19T01:07:06;93878.00;;;15.10
10598;BMP180;5346;48.766;8.674;2023-09-19T01:09:42;93873.00;;;15.10
10598;BMP180;5346;48.766;8.674;2023-09-19T01:12:25;93875.00;;;15.00
10598;BMP180;5346;48.766;8.674;2023-09-19T01:15:17;93874.00;;;15.00
10598;BMP180;5346;48.766;8.674;2023-09-19T01:21:15;93885.00;;;15.00
10598;BMP180;5346;48.766;8.674;2023-09-19T01:30:13;93876.00;;;14.70
10598;BMP180;5346;48.766;8.674;2023-09-19T01:32:51;93881.00;;;14.90
10598;BMP180;5346;48.766;8.674;2023-09-19T01:35:20;93882.00;;;14.80
10598;BMP180;5346;48.766;8.674;2023-09-19T01:37:49;93889.00;;;14.80
10598;BMP180;5346;48.766;8.674;2023-09-19T01:40:24;93885.00;;;14.80
10598;BMP180;5346;48.766;8.674;2023-09-19T01:43:03;93898.00;;;14.80
10598;BMP180;5346;48.766;8.674;2023-09-19T01:48:38;93905.00;;;14.70
10598;BMP180;5346;48.766;8.674;2023-09-19T01:51:11;93902.00;;;14.90
10598;BMP180;5346;48.766;8.674;2023-09-19T01:54:00;93898.00;;;14.80
10598;BMP180;5346;48.766;8.674;2023-09-19T01:57:03;93906.00;;;14.90
10598;BMP180;5346;48.766;8.674;2023-09-19T01:59:41;93910.00;;;15.00
10598;BMP180;5346;48.766;8.674;2023-09-19T02:02:25;93913.00;;;15.10
10598;BMP180;5346;48.766;8.674;2023-09-19T02:05:04;93908.00;;;14.90
10598;BMP180;5346;48.766;8.674;2023-09-19T02:07:39;93909.00;;;15.10
10598;BMP180;5346;48.766;8.674;2023-09-19T02:10:08;93909.00;;;15.10
10598;BMP180;5346;48.766;8.674;2023-09-19T02:12:46;93903.00;;;15.10
10598;BMP180;5346;48.766;8.674;2023-09-19T02:15:16;93905.00;;;15.10
10598;BMP180;5346;48.766;8.674;2023-09-19T02:17:51;93906.00;;;15.20
10598;BMP180;5346;48.766;8.674;2023-09-19T02:20:19;93910.00;;;15.00
10598;BMP180;5346;48.766;8.674;2023-09-19T02:22:55;93908.00;;;15.10
10598;BMP180;5346;48.766;8.674;2023-09-19T02:25:29;93922.00;;;15.10
10598;BMP180;5346;48.766;8.674;2023-09-19T02:28:09;93916.00;;;15.20
10598;BMP180;5346;48.766;8.674;2023-09-19T02:30:36;93922.00;;;15.20
10598;BMP180;5346;48.766;8.674;2023-09-19T02:33:11;93919.00;;;15.00
10598;BMP180;5346;48.766;8.674;2023-09-19T02:35:47;93919.00;;;15.10
10598;BMP180;5346;48.766;8.674;2023-09-19T02:38:21;93922.00;;;15.10
10598;BMP180;5346;48.766;8.674;2023-09-19T02:41:01;93931.00;;;15.10
10598;BMP180;5346;48.766;8.674;2023-09-19T02:43:35;93923.00;;;15.10
10598;BMP180;5346;48.766;8.674;2023-09-19T02:46:03;93930.00;;;15.30
10598;BMP180;5346;48.766;8.674;2023-09-19T02:48:37;93929.00;;;15.30
10598;BMP180;5346;48.766;8.674;2023-09-19T02:51:05;93922.00;;;15.30
10598;BMP180;5346;48.766;8.674;2023-09-19T02:53:42;93925.00;;;15.40
10598;BMP180;5346;48.766;8.674;2023-09-19T02:56:16;93923.00;;;15.40
10598;BMP180;5346;48.766;8.674;2023-09-19T02:58:44;93920.00;;;15.20
10598;BMP180;5346;48.766;8.674;2023-09-19T03:01:20;93928.00;;;15.20
10598;BMP180;5346;48.766;8.674;2023-09-19T03:04:01;93932.00;;;15.30
10598;BMP180;5346;48.766;8.674;2023-09-19T03:06:30;93937.00;;;15.40
10598;BMP180;5346;48.766;8.674;2023-09-19T03:09:05;93928.00;;;15.30
10598;BMP180;5346;48.766;8.674;2023-09-19T03:11:40;93934.00;;;15.20
10598;BMP180;5346;48.766;8.674;2023-09-19T03:14:16;93946.00;;;15.20
10598;BMP180;5346;48.766;8.674;2023-09-19T03:16:44;93944.00;;;15.30
10598;BMP180;5346;48.766;8.674;2023-09-19T03:19:19;93945.00;;;15.20
10598;BMP180;5346;48.766;8.674;2023-09-19T03:21:48;93951.00;;;15.20
10598;BMP180;5346;48.766;8.674;2023-09-19T03:24:24;93948.00;;;15.30
10598;BMP180;5346;48.766;8.674;2023-09-19T03:26:58;93959.00;;;15.30
10598;BMP180;5346;48.766;8.674;2023-09-19T03:29:32;93943.00;;;15.20
10598;BMP180;5346;48.766;8.674;2023-09-19T03:32:06;93944.00;;;15.20
10598;BMP180;5346;48.766;8.674;2023-09-19T03:34:41;93948.00;;;15.10
10598;BMP180;5346;48.766;8.674;2023-09-19T03:37:19;93951.00;;;15.20
10598;BMP180;5346;48.766;8.674;2023-09-19T03:39:48;93955.00;;;15.10
10598;BMP180;5346;48.766;8.674;2023-09-19T03:42:24;93950.00;;;15.20
10598;BMP180;5346;48.766;8.674;2023-09-19T03:45:00;93948.00;;;15.10
10598;BMP180;5346;48.766;8.674;2023-09-19T03:47:39;93942.00;;;15.20
10598;BMP180;5346;48.766;8.674;2023-09-19T03:50:16;93936.00;;;15.10
10598;BMP180;5346;48.766;8.674;2023-09-19T03:52:56;93946.00;;;15.10
10598;BMP180;5346;48.766;8.674;2023-09-19T03:55:24;93944.00;;;15.10
10598;BMP180;5346;48.766;8.674;2023-09-19T03:57:58;93943.00;;;15.00
10598;BMP180;5346;48.766;8.674;2023-09-19T04:00:26;93937.00;;;15.00
10598;BMP180;5346;48.766;8.674;2023-09-19T04:02:55;93944.00;;;15.10
10598;BMP180;5346;48.766;8.674;2023-09-19T04:05:34;93935.00;;;15.20
10598;BMP180;5346;48.766;8.674;2023-09-19T04:08:18;93938.00;;;15.10
10598;BMP180;5346;48.766;8.674;2023-09-19T04:10:51;93936.00;;;15.10
10598;BMP180;5346;48.766;8.674;2023-09-19T04:13:27;93943.00;;;15.00
10598;BMP180;5346;48.766;8.674;2023-09-19T04:16:02;93952.00;;;15.00
10598;BMP180;5346;48.766;8.674;2023-09-19T04:18:41;93955.00;;;14.70
10598;BMP180;5346;48.766;8.674;2023-09-19T04:21:14;93973.00;;;14.30
10598;BMP180;5346;48.766;8.674;2023-09-19T04:23:47;93965.00;;;14.10
10598;BMP180;5346;48.766;8.674;2023-09-19T04:26:23;93970.00;;;13.90
10598;BMP180;5346;48.766;8.674;2023-09-19T04:28:53;93975.00;;;13.80
10598;BMP180;5346;48.766;8.674;2023-09-19T04:31:29;93980.00;;;13.80
10598;BMP180;5346;48.766;8.674;2023-09-19T04:33:57;93984.00;;;13.80
10598;BMP180;5346;48.766;8.674;2023-09-19T04:36:35;93978.00;;;13.80
10598;BMP180;5346;48.766;8.674;2023-09-19T04:39:09;93979.00;;;13.80
10598;BMP180;5346;48.766;8.674;2023-09-19T04:41:45;93977.00;;;13.80
10598;BMP180;5346;48.766;8.674;2023-09-19T04:44:17;93982.00;;;13.80
10598;BMP180;5346;48.766;8.674;2023-09-19T04:46:52;93981.00;;;13.80
10598;BMP180;5346;48.766;8.674;2023-09-19T04:49:20;93989.00;;;13.80
10598;BMP180;5346;48.766;8.674;2023-09-19T04:51:54;94001.00;;;13.70
10598;BMP180;5346;48.766;8.674;2023-09-19T04:54:23;94009.00;;;13.70
10598;BMP180;5346;48.766;8.674;2023-09-19T04:56:58;94009.00;;;13.60
10598;BMP180;5346;48.766;8.674;2023-09-19T04:59:33;93997.00;;;13.30
10598;BMP180;5346;48.766;8.674;2023-09-19T05:02:09;94006.00;;;13.20
10598;BMP180;5346;48.766;8.674;2023-09-19T05:04:52;94019.00;;;13.10
10598;BMP180;5346;48.766;8.674;2023-09-19T05:07:27;94026.00;;;13.00
10598;BMP180;5346;48.766;8.674;2023-09-19T05:10:04;94019.00;;;12.90
10598;BMP180;5346;48.766;8.674;2023-09-19T05:12:40;94025.00;;;13.00
10598;BMP180;5346;48.766;8.674;2023-09-19T05:15:14;94020.00;;;12.90
10598;BMP180;5346;48.766;8.674;2023-09-19T05:17:51;94018.00;;;12.90
10598;BMP180;5346;48.766;8.674;2023-09-19T05:20:24;94023.00;;;12.90
10598;BMP180;5346;48.766;8.674;2023-09-19T05:23:07;94032.00;;;12.80
10598;BMP180;5346;48.766;8.674;2023-09-19T05:25:40;94033.00;;;12.70
10598;BMP180;5346;48.766;8.674;2023-09-19T05:28:14;94040.00;;;12.60
10598;BMP180;5346;48.766;8.674;2023-09-19T05:30:43;94048.00;;;12.60
10598;BMP180;5346;48.766;8.674;2023-09-19T05:33:17;94047.00;;;12.70
10598;BMP180;5346;48.766;8.674;2023-09-19T05:35:52;94045.00;;;12.70
10598;BMP180;5346;48.766;8.674;2023-09-19T05:38:27;94048.00;;;12.70
10598;BMP180;5346;48.766;8.674;2023-09-19T05:40:56;94051.00;;;12.70
10598;BMP180;5346;48.766;8.674;2023-09-19T05:43:24;94049.00;;;12.60
10598;BMP180;5346;48.766;8.674;2023-09-19T05:46:00;94054.00;;;12.60
10598;BMP180;5346;48.766;8.674;2023-09-19T05:48:28;94046.00;;;12.50
10598;BMP180;5346;48.766;8.674;2023-09-19T05:51:02;94062.00;;;12.60
10598;BMP180;5346;48.766;8.674;2023-09-19T05:53:37;94055.00;;;12.60
10598;BMP180;5346;48.766;8.674;2023-09-19T05:56:05;94052.00;;;12.60
10598;BMP180;5346;48.766;8.674;2023-09-19T05:58:40;94056.00;;;12.50
10598;BMP180;5346;48.766;8.674;2023-09-19T06:01:18;94044.00;;;12.40
10598;BMP180;5346;48.766;8.674;2023-09-19T06:03:46;94067.00;;;12.50
10598;BMP180;5346;48.766;8.674;2023-09-19T06:06:27;94064.00;;;12.50
10598;BMP180;5346;48.766;8.674;2023-09-19T06:09:02;94053.00;;;12.50
10598;BMP180;5346;48.766;8.674;2023-09-19T06:11:33;94053.00;;;12.60
10598;BMP180;5346;48.766;8.674;2023-09-19T06:14:11;94057.00;;;12.60
10598;BMP180;5346;48.766;8.674;2023-09-19T06:16:40;94059.00;;;12.70
10598;BMP180;5346;48.766;8.674;2023-09-19T06:19:17;94063.00;;;12.80
10598;BMP180;5346;48.766;8.674;2023-09-19T06:21:45;94068.00;;;12.80
10598;BMP180;5346;48.766;8.674;2023-09-19T06:24:22;94064.00;;;12.80
10598;BMP180;5346;48.766;8.674;2023-09-19T06:26:51;94057.00;;;13.00
10598;BMP180;5346;48.766;8.674;2023-09-19T06:29:26;94065.00;;;13.10
10598;BMP180;5346;48.766;8.674;2023-09-19T06:31:56;94059.00;;;13.10
10598;BMP180;5346;48.766;8.674;2023-09-19T06:34:31;94074.00;;;13.20
10598;BMP180;5346;48.766;8.674;2023-09-19T06:37:06;94080.00;;;13.10
10598;BMP180;5346;48.766;8.674;2023-09-19T06:39:50;94073.00;;;13.10
10598;BMP180;5346;48.766;8.674;2023-09-19T06:42:19;94076.00;;;13.10
10598;BMP180;5346;48.766;8.674;2023-09-19T06:44:54;94076.00;;;13.30
10598;BMP180;5346;48.766;8.674;2023-09-19T06:47:25;94072.00;;;13.20
10598;BMP180;5346;48.766;8.674;2023-09-19T06:50:04;94075.00;;;13.30
10598;BMP180;5346;48.766;8.674;2023-09-19T06:52:34;94070.00;;;13.50
10598;BMP180;5346;48.766;8.674;2023-09-19T06:55:12;94078.00;;;13.60
10598;BMP180;5346;48.766;8.674;2023-09-19T06:57:51;94090.00;;;13.50
10598;BMP180;5346;48.766;8.674;2023-09-19T07:00:26;94095.00;;;13.50
10598;BMP180;5346;48.766;8.674;2023-09-19T07:03:19;94102.00;;;13.60
10598;BMP180;5346;48.766;8.674;2023-09-19T07:05:49;94102.00;;;13.70
10598;BMP180;5346;48.766;8.674;2023-09-19T07:08:24;94107.00;;;13.70
10598;BMP180;5346;48.766;8.674;2023-09-19T07:10:58;94112.00;;;13.80
10598;BMP180;5346;48.766;8.674;2023-09-19T07:13:34;94114.00;;;13.70
10598;BMP180;5346;48.766;8.674;2023-09-19T07:16:14;94101.00;;;13.70
10598;BMP180;5346;48.766;8.674;2023-09-19T07:19:02;94119.00;;;13.70
10598;BMP180;5346;48.766;8.674;2023-09-19T07:21:38;94113.00;;;13.80
10598;BMP180;5346;48.766;8.674;2023-09-19T07:24:07;94109.00;;;13.80
10598;BMP180;5346;48.766;8.674;2023-09-19T07:26:45;94112.00;;;13.80
10598;BMP180;5346;48.766;8.674;2023-09-19T07:29:13;94122.00;;;13.80
10598;BMP180;5346;48.766;8.674;2023-09-19T07:31:48;94124.00;;;13.80
10598;BMP180;5346;48.766;8.674;2023-09-19T07:34:18;94124.00;;;13.80
10598;BMP180;5346;48.766;8.674;2023-09-19T07:36:53;94123.00;;;13.90
10598;BMP180;5346;48.766;8.674;2023-09-19T07:39:22;94134.00;;;14.00
10598;BMP180;5346;48.766;8.674;2023-09-19T07:41:56;94122.00;;;13.90
10598;BMP180;5346;48.766;8.674;2023-09-19T07:44:25;94126.00;;;14.10
10598;BMP180;5346;48.766;8.674;2023-09-19T07:47:00;94135.00;;;14.10
10598;BMP180;5346;48.766;8.674;2023-09-19T07:49:29;94139.00;;;14.40
10598;BMP180;5346;48.766;8.674;2023-09-19T07:51:58;94142.00;;;14.40
10598;BMP180;5346;48.766;8.674;2023-09-19T07:54:37;94135.00;;;14.40
10598;BMP180;5346;48.766;8.674;2023-09-19T07:57:06;94143.00;;;14.30
10598;BMP180;5346;48.766;8.674;2023-09-19T07:59:40;94133.00;;;14.60
10598;BMP180;5346;48.766;8.674;2023-09-19T08:02:09;94132.00;;;14.90
10598;BMP180;5346;48.766;8.674;2023-09-19T08:04:50;94133.00;;;15.50
10598;BMP180;5346;48.766;8.674;2023-09-19T08:07:25;94121.00;;;15.90
10598;BMP180;5346;48.766;8.674;2023-09-19T08:09:59;94139.00;;;16.20
10598;BMP180;5346;48.766;8.674;2023-09-19T08:12:28;94149.00;;;16.20
10598;BMP180;5346;48.766;8.674;2023-09-19T08:15:05;94137.00;;;16.00
10598;BMP180;5346;48.766;8.674;2023-09-19T08:17:40;94147.00;;;15.80
10598;BMP180;5346;48.766;8.674;2023-09-19T08:20:16;94152.00;;;15.80
10598;BMP180;5346;48.766;8.674;2023-09-19T08:22:53;94144.00;;;15.50
10598;BMP180;5346;48.766;8.674;2023-09-19T08:25:29;94147.00;;;15.70
10598;BMP180;5346;48.766;8.674;2023-09-19T08:27:58;94166.00;;;15.50
10598;BMP180;5346;48.766;8.674;2023-09-19T08:30:37;94152.00;;;15.50
10598;BMP180;5346;48.766;8.674;2023-09-19T08:33:05;94146.00;;;15.70
10598;BMP180;5346;48.766;8.674;2023-09-19T08:35:39;94155.00;;;16.00
10598;BMP180;5346;48.766;8.674;2023-09-19T08:38:09;94154.00;;;16.20
10598;BMP180;5346;48.766;8.674;2023-09-19T08:40:44;94152.00;;;16.00
10598;BMP180;5346;48.766;8.674;2023-09-19T08:43:13;94156.00;;;16.00
10598;BMP180;5346;48.766;8.674;2023-09-19T08:45:48;94173.00;;;15.90
10598;BMP180;5346;48.766;8.674;2023-09-19T08:48:25;94155.00;;;16.20
10598;BMP180;5346;48.766;8.674;2023-09-19T08:53:52;94181.00;;;15.90
10598;BMP180;5346;48.766;8.674;2023-09-19T08:56:29;94184.00;;;15.90
10598;BMP180;5346;48.766;8.674;2023-09-19T08:59:07;94186.00;;;15.80
10598;BMP180;5346;48.766;8.674;2023-09-19T09:01:42;94190.00;;;15.80
10598;BMP180;5346;48.766;8.674;2023-09-19T09:04:24;94189.00;;;15.70
10598;BMP180;5346;48.766;8.674;2023-09-19T09:07:06;94195.00;;;15.90
10598;BMP180;5346;48.766;8.674;2023-09-19T09:09:38;94194.00;;;15.90
10598;BMP180;5346;48.766;8.674;2023-09-19T09:12:16;94195.00;;;15.90
10598;BMP180;5346;48.766;8.674;2023-09-19T09:14:51;94182.00;;;16.20
10598;BMP180;5346;48.766;8.674;2023-09-19T09:17:28;94190.00;;;16.20
10598;BMP180;5346;48.766;8.674;2023-09-19T09:20:04;94194.00;;;16.10
10598;BMP180;5346;48.766;8.674;2023-09-19T09:22:55;94197.00;;;16.00
10598;BMP180;5346;48.766;8.674;2023-09-19T09:25:52;94190.00;;;16.10
10598;BMP180;5346;48.766;8.674;2023-09-19T09:28:45;94194.00;;;16.10
10598;BMP180;5346;48.766;8.674;2023-09-19T09:31:26;94190.00;;;16.40
10598;BMP180;5346;48.766;8.674;2023-09-19T09:34:01;94197.00;;;16.30
10598;BMP180;5346;48.766;8.674;2023-09-19T09:36:41;94191.00;;;16.10
10598;BMP180;5346;48.766;8.674;2023-09-19T09:39:15;94196.00;;;16.10
10598;BMP180;5346;48.766;8.674;2023-09-19T09:42:05;94201.00;;;16.00
10598;BMP180;5346;48.766;8.674;2023-09-19T09:44:34;94189.00;;;16.10
10598;BMP180;5346;48.766;8.674;2023-09-19T09:47:09;94196.00;;;16.00
10598;BMP180;5346;48.766;8.674;2023-09-19T09:49:56;94196.00;;;16.50
10598;BMP180;5346;48.766;8.674;2023-09-19T09:52:47;94188.00;;;16.30
10598;BMP180;5346;48.766;8.674;2023-09-19T09:55:15;94186.00;;;16.10
10598;BMP180;5346;48.766;8.674;2023-09-19T09:58:17;94183.00;;;16.10
10598;BMP180;5346;48.766;8.674;2023-09-19T10:00:54;94192.00;;;16.40
10598;BMP180;5346;48.766;8.674;2023-09-19T10:03:39;94196.00;;;17.00
10598;BMP180;5346;48.766;8.674;2023-09-19T10:06:25;94189.00;;;17.60
10598;BMP180;5346;48.766;8.674;2023-09-19T10:09:02;94168.00;;;17.90
10598;BMP180;5346;48.766;8.674;2023-09-19T10:11:59;94194.00;;;17.50
10598;BMP180;5346;48.766;8.674;2023-09-19T10:14:38;94167.00;;;17.30
10598;BMP180;5346;48.766;8.674;2023-09-19T10:17:12;94150.00;;;17.80
10598;BMP180;5346;48.766;8.674;2023-09-19T10:19:57;94171.00;;;17.90
10598;BMP180;5346;48.766;8.674;2023-09-19T10:22:32;94162.00;;;18.20
10598;BMP180;5346;48.766;8.674;2023-09-19T10:25:05;94166.00;;;18.40
10598;BMP180;5346;48.766;8.674;2023-09-19T10:27:43;94168.00;;;18.70
10598;BMP180;5346;48.766;8.674;2023-09-19T10:30:12;94148.00;;;18.00
10598;BMP180;5346;48.766;8.674;2023-09-19T10:32:59;94162.00;;;17.90
10598;BMP180;5346;48.766;8.674;2023-09-19T10:35:38;94165.00;;;18.90
10598;BMP180;5346;48.766;8.674;2023-09-19T10:38:10;94149.00;;;18.80
10598;BMP180;5346;48.766;8.674;2023-09-19T10:40:52;94145.00;;;19.50
10598;BMP180;5346;48.766;8.674;2023-09-19T10:43:21;94147.00;;;19.30
10598;BMP180;5346;48.766;8.674;2023-09-19T10:46:08;94153.00;;;19.30
10598;BMP180;5346;48.766;8.674;2023-09-19T10:48:49;94183.00;;;19.00
10598;BMP180;5346;48.766;8.674;2023-09-19T10:51:25;94180.00;;;18.30
10598;BMP180;5346;48.766;8.674;2023-09-19T10:54:13;94164.00;;;18.30
10598;BMP180;5346;48.766;8.674;2023-09-19T10:56:51;94157.00;;;18.40
10598;BMP180;5346;48.766;8.674;2023-09-19T10:59:26;94177.00;;;18.70
10598;BMP180;5346;48.766;8.674;2023-09-19T11:02:18;94187.00;;;18.40
10598;BMP180;5346;48.766;8.674;2023-09-19T11:05:14;94164.00;;;18.40
10598;BMP180;5346;48.766;8.674;2023-09-19T11:07:59;94171.00;;;18.20
10598;BMP180;5346;48.766;8.674;2023-09-19T11:10:51;94181.00;;;17.90
10598;BMP180;5346;48.766;8.674;2023-09-19T11:13:29;94158.00;;;18.00
10598;BMP180;5346;48.766;8.674;2023-09-19T11:16:18;94184.00;;;18.40
10598;BMP180;5346;48.766;8.674;2023-09-19T11:18:54;94186.00;;;18.40
10598;BMP180;5346;48.766;8.674;2023-09-19T11:21:41;94179.00;;;18.10
10598;BMP180;5346;48.766;8.674;2023-09-19T11:27:13;94146.00;;;18.20
10598;BMP180;5346;48.766;8.674;2023-09-19T11:29:48;94177.00;;;19.50
10598;BMP180;5346;48.766;8.674;2023-09-19T11:36:08;94176.00;;;18.60
10598;BMP180;5346;48.766;8.674;2023-09-19T11:46:55;94155.00;;;20.90
10598;BMP180;5346;48.766;8.674;2023-09-19T11:49:32;94161.00;;;20.60
10598;BMP180;5346;48.766;8.674;2023-09-19T11:52:01;94125.00;;;21.00
10598;BMP180;5346;48.766;8.674;2023-09-19T11:54:40;94155.00;;;20.60
10598;BMP180;5346;48.766;8.674;2023-09-19T11:57:10;94137.00;;;20.60
10598;BMP180;5346;48.766;8.674;2023-09-19T11:59:39;94116.00;;;20.90
10598;BMP180;5346;48.766;8.674;2023-09-19T12:05:05;94111.00;;;22.00
10598;BMP180;5346;48.766;8.674;2023-09-19T12:07:46;94156.00;;;21.20
10598;BMP180;5346;48.766;8.674;2023-09-19T12:10:16;94136.00;;;20.10
10598;BMP180;5346;48.766;8.674;2023-09-19T12:12:56;94141.00;;;19.90
10598;BMP180;5346;48.766;8.674;2023-09-19T12:15:28;94108.00;;;19.90
10598;BMP180;5346;48.766;8.674;2023-09-19T12:18:08;94142.00;;;20.80
10598;BMP180;5346;48.766;8.674;2023-09-19T12:20:43;94118.00;;;20.60
10598;BMP180;5346;48.766;8.674;2023-09-19T12:23:20;94108.00;;;21.10
10598;BMP180;5346;48.766;8.674;2023-09-19T12:25:49;94094.00;;;22.10
10598;BMP180;5346;48.766;8.674;2023-09-19T12:28:28;94092.00;;;22.30
10598;BMP180;5346;48.766;8.674;2023-09-19T12:31:08;94100.00;;;22.00
10598;BMP180;5346;48.766;8.674;2023-09-19T12:33:42;94108.00;;;21.90
10598;BMP180;5346;48.766;8.674;2023-09-19T12:36:21;94110.00;;;21.70
10598;BMP180;5346;48.766;8.674;2023-09-19T12:39:03;94095.00;;;22.50
10598;BMP180;5346;48.766;8.674;2023-09-19T12:41:37;94095.00;;;22.80
10598;BMP180;5346;48.766;8.674;2023-09-19T12:44:12;94076.00;;;23.00
10598;BMP180;5346;48.766;8.674;2023-09-19T12:46:40;94073.00;;;23.80
10598;BMP180;5346;48.766;8.674;2023-09-19T12:49:19;94076.00;;;23.40
10598;BMP180;5346;48.766;8.674;2023-09-19T12:51:55;94081.00;;;22.00
10598;BMP180;5346;48.766;8.674;2023-09-19T12:54:40;94102.00;;;22.00
10598;BMP180;5346;48.766;8.674;2023-09-19T12:57:24;94119.00;;;22.20
10598;BMP180;5346;48.766;8.674;2023-09-19T13:00:04;94122.00;;;20.60
10598;BMP180;5346;48.766;8.674;2023-09-19T13:05:58;94089.00;;;21.90
10598;BMP180;5346;48.766;8.674;2023-09-19T13:08:30;94084.00;;;21.80
10598;BMP180;5346;48.766;8.674;2023-09-19T13:11:14;94112.00;;;22.90
10598;BMP180;5346;48.766;8.674;2023-09-19T13:13:48;94088.00;;;21.60
10598;BMP180;5346;48.766;8.674;2023-09-19T13:16:24;94077.00;;;22.20
10598;BMP180;5346;48.766;8.674;2023-09-19T13:18:54;94114.00;;;22.60
10598;BMP180;5346;48.766;8.674;2023-09-19T13:21:33;94117.00;;;22.30
10598;BMP180;5346;48.766;8.674;2023-09-19T13:24:24;94114.00;;;22.10
10598;BMP180;5346;48.766;8.674;2023-09-19T13:27:04;94102.00;;;21.80
10598;BMP180;5346;48.766;8.674;2023-09-19T13:29:33;94124.00;;;21.80
10598;BMP180;5346;48.766;8.674;2023-09-19T13:32:07;94126.00;;;21.40
10598;BMP180;5346;48.766;8.674;2023-09-19T13:34:46;94137.00;;;20.70
10598;BMP180;5346;48.766;8.674;2023-09-19T13:37:19;94127.00;;;19.90
10598;BMP180;5346;48.766;8.674;2023-09-19T13:39:54;94125.00;;;19.50
10598;BMP180;5346;48.766;8.674;2023-09-19T13:42:21;94098.00;;;20.00
10598;BMP180;5346;48.766;8.674;2023-09-19T13:44:56;94112.00;;;20.30
10598;BMP180;5346;48.766;8.674;2023-09-19T13:47:31;94121.00;;;19.80
10598;BMP180;5346;48.766;8.674;2023-09-19T13:50:07;94103.00;;;20.10
10598;BMP180;5346;48.766;8.674;2023-09-19T13:52:41;94112.00;;;20.80
10598;BMP180;5346;48.766;8.674;2023-09-19T13:55:17;94102.00;;;21.50
10598;BMP180;5346;48.766;8.674;2023-09-19T13:57:53;94087.00;;;21.50
10598;BMP180;5346;48.766;8.674;2023-09-19T14:00:30;94078.00;;;21.70
10598;BMP180;5346;48.766;8.674;2023-09-19T14:02:58;94083.00;;;21.90
10598;BMP180;5346;48.766;8.674;2023-09-19T14:05:32;94074.00;;;21.70
10598;BMP180;5346;48.766;8.674;2023-09-19T14:08:06;94090.00;;;21.90
10598;BMP180;5346;48.766;8.674;2023-09-19T14:10:41;94078.00;;;21.60
10598;BMP180;5346;48.766;8.674;2023-09-19T14:13:08;94076.00;;;21.60
10598;BMP180;5346;48.766;8.674;2023-09-19T14:15:37;94074.00;;;21.70
10598;BMP180;5346;48.766;8.674;2023-09-19T14:18:11;94082.00;;;21.60
10598;BMP180;5346;48.766;8.674;2023-09-19T14:20:46;94085.00;;;21.70
10598;BMP180;5346;48.766;8.674;2023-09-19T14:23:21;94081.00;;;21.60
10598;BMP180;5346;48.766;8.674;2023-09-19T14:25:50;94071.00;;;21.80
10598;BMP180;5346;48.766;8.674;2023-09-19T14:28:25;94072.00;;;21.80
10598;BMP180;5346;48.766;8.674;2023-09-19T14:30:53;94084.00;;;21.60
10598;BMP180;5346;48.766;8.674;2023-09-19T14:33:29;94087.00;;;20.70
10598;BMP180;5346;48.766;8.674;2023-09-19T14:36:05;94082.00;;;20.30
10598;BMP180;5346;48.766;8.674;2023-09-19T14:38:40;94074.00;;;20.60
10598;BMP180;5346;48.766;8.674;2023-09-19T14:41:30;94067.00;;;20.50
10598;BMP180;5346;48.766;8.674;2023-09-19T14:44:05;94079.00;;;21.10
10598;BMP180;5346;48.766;8.674;2023-09-19T14:46:39;94075.00;;;21.00
10598;BMP180;5346;48.766;8.674;2023-09-19T14:49:15;94080.00;;;20.80
10598;BMP180;5346;48.766;8.674;2023-09-19T14:51:52;94077.00;;;20.50
10598;BMP180;5346;48.766;8.674;2023-09-19T14:54:27;94083.00;;;20.40
10598;BMP180;5346;48.766;8.674;2023-09-19T14:57:03;94078.00;;;20.40
10598;BMP180;5346;48.766;8.674;2023-09-19T14:59:43;94088.00;;;20.80
10598;BMP180;5346;48.766;8.674;2023-09-19T15:02:17;94084.00;;;20.70
10598;BMP180;5346;48.766;8.674;2023-09-19T15:04:52;94090.00;;;20.30
10598;BMP180;5346;48.766;8.674;2023-09-19T15:07:37;94086.00;;;20.00
10598;BMP180;5346;48.766;8.674;2023-09-19T15:10:12;94088.00;;;20.10
10598;BMP180;5346;48.766;8.674;2023-09-19T15:12:48;94085.00;;;20.00
10598;BMP180;5346;48.766;8.674;2023-09-19T15:15:22;94098.00;;;19.90
10598;BMP180;5346;48.766;8.674;2023-09-19T15:17:55;94089.00;;;20.00
10598;BMP180;5346;48.766;8.674;2023-09-19T15:20:24;94091.00;;;19.60
10598;BMP180;5346;48.766;8.674;2023-09-19T15:22:58;94090.00;;;19.50
10598;BMP180;5346;48.766;8.674;2023-09-19T15:25:29;94088.00;;;19.40
10598;BMP180;5346;48.766;8.674;2023-09-19T15:28:04;94071.00;;;19.40
10598;BMP180;5346;48.766;8.674;2023-09-19T15:30:42;94077.00;;;19.40
10598;BMP180;5346;48.766;8.674;2023-09-19T15:33:11;94063.00;;;19.30
10598;BMP180;5346;48.766;8.674;2023-09-19T15:35:46;94066.00;;;19.80
10598;BMP180;5346;48.766;8.674;2023-09-19T15:38:13;94071.00;;;19.60
10598;BMP180;5346;48.766;8.674;2023-09-19T15:40:54;94069.00;;;19.60
10598;BMP180;5346;48.766;8.674;2023-09-19T15:43:31;94066.00;;;19.60
10598;BMP180;5346;48.766;8.674;2023-09-19T15:46:05;94063.00;;;19.40
10598;BMP180;5346;48.766;8.674;2023-09-19T15:48:40;94063.00;;;19.60